createdAt,value
2019-06-26T00:00:44.227Z,21.42
2019-06-26T00:01:46.283Z,21.17
2019-06-26T00:02:48.075Z,21.20
2019-06-26T00:03:49.778Z,21.85
2019-06-26T00:04:51.470Z,22.35
2019-06-26T00:05:53.195Z,22.35
2019-06-26T00:06:54.889Z,21.48
2019-06-26T00:07:56.587Z,22.58
2019-06-26T00:08:58.278Z,22.10
2019-06-26T00:09:59.849Z,21.93
2019-06-26T00:11:01.542Z,22.98
2019-06-26T00:12:03.157Z,23.18
2019-06-26T00:13:04.733Z,21.55
2019-06-26T00:14:06.416Z,21.70
2019-06-26T00:15:08.641Z,21.30
2019-06-26T00:16:10.326Z,21.17
2019-06-26T00:17:12.018Z,21.60
2019-06-26T00:18:13.610Z,22.22
2019-06-26T00:19:15.191Z,21.55
2019-06-26T00:20:17.568Z,20.77
2019-06-26T00:21:21.957Z,22.17
2019-06-26T00:22:22.830Z,22.70
2019-06-26T00:23:24.493Z,22.55
2019-06-26T00:24:26.074Z,22.90
2019-06-26T00:25:27.671Z,22.07
2019-06-26T00:26:29.355Z,23.10
2019-06-26T00:27:31.093Z,23.35
2019-06-26T00:28:32.797Z,22.07
2019-06-26T00:29:34.906Z,22.25
2019-06-26T00:30:36.593Z,20.92
2019-06-26T00:31:38.275Z,21.80
2019-06-26T00:32:40.307Z,21.45
2019-06-26T00:33:41.889Z,22.10
2019-06-26T00:34:43.585Z,22.52
2019-06-26T00:35:45.270Z,22.42
2019-06-26T00:36:46.877Z,22.77
2019-06-26T00:37:48.487Z,22.07
2019-06-26T00:38:50.330Z,21.93
2019-06-26T00:39:52.185Z,22.42
2019-06-26T00:40:53.864Z,22.50
2019-06-26T00:41:55.987Z,21.93
2019-06-26T00:42:57.590Z,22.30
2019-06-26T00:43:59.282Z,22.87
2019-06-26T00:45:00.865Z,22.95
2019-06-26T00:46:02.768Z,22.27
2019-06-26T00:47:04.461Z,22.32
2019-06-26T00:48:06.078Z,22.30
2019-06-26T00:49:07.649Z,22.62
2019-06-26T00:50:09.839Z,21.10
2019-06-26T00:51:11.528Z,22.40
2019-06-26T00:52:13.467Z,22.10
2019-06-26T00:53:15.099Z,22.10
2019-06-26T00:54:16.793Z,22.52
2019-06-26T00:55:18.479Z,21.10
2019-06-26T00:56:20.166Z,22.00
2019-06-26T00:57:21.857Z,21.93
2019-06-26T00:58:23.457Z,21.57
2019-06-26T00:59:25.136Z,20.70
2019-06-26T01:00:33.429Z,22.02
2019-06-26T01:01:35.348Z,22.05
2019-06-26T01:02:37.145Z,20.77
2019-06-26T01:03:38.728Z,21.68
2019-06-26T01:04:44.921Z,21.50
2019-06-26T01:05:46.604Z,22.58
2019-06-26T01:06:48.297Z,22.13
2019-06-26T01:07:49.886Z,21.77
2019-06-26T01:08:51.602Z,21.27
2019-06-26T01:09:54.532Z,20.72
2019-06-26T01:10:56.235Z,21.87
2019-06-26T01:11:57.924Z,21.45
2019-06-26T01:12:59.501Z,20.65
2019-06-26T01:14:01.196Z,21.02
2019-06-26T01:15:04.528Z,21.60
2019-06-26T01:16:06.224Z,21.40
2019-06-26T01:17:08.322Z,22.35
2019-06-26T01:18:10.081Z,21.73
2019-06-26T01:19:11.671Z,21.42
2019-06-26T01:20:13.478Z,21.85
2019-06-26T01:21:15.175Z,22.58
2019-06-26T01:22:16.848Z,21.37
2019-06-26T01:23:18.635Z,22.87
2019-06-26T01:24:20.340Z,22.37
2019-06-26T01:25:22.338Z,22.65
2019-06-26T01:26:23.930Z,22.35
2019-06-26T01:27:25.636Z,22.30
2019-06-26T01:28:27.221Z,22.60
2019-06-26T01:29:31.846Z,24.37
2019-06-26T01:30:32.481Z,23.30
2019-06-26T01:31:34.205Z,23.22
2019-06-26T01:32:36.283Z,24.07
2019-06-26T01:33:37.961Z,22.95
2019-06-26T01:34:39.657Z,23.18
2019-06-26T01:35:41.372Z,22.73
2019-06-26T01:36:43.360Z,22.17
2019-06-26T01:37:45.239Z,24.47
2019-06-26T01:38:46.946Z,23.00
2019-06-26T01:39:48.922Z,23.85
2019-06-26T01:40:50.561Z,24.40
2019-06-26T01:41:52.253Z,23.98
2019-06-26T01:42:53.943Z,23.75
2019-06-26T01:43:55.553Z,23.57
2019-06-26T01:44:57.138Z,23.07
2019-06-26T01:46:00.307Z,23.77
2019-06-26T01:47:02.299Z,22.55
2019-06-26T01:48:04.433Z,22.87
2019-06-26T01:49:06.049Z,23.77
2019-06-26T01:50:09.329Z,23.83
2019-06-26T01:51:11.533Z,22.93
2019-06-26T01:52:13.125Z,22.82
2019-06-26T01:53:14.815Z,22.73
2019-06-26T01:54:16.510Z,23.45
2019-06-26T01:55:18.718Z,23.55
2019-06-26T01:56:20.438Z,23.50
2019-06-26T01:57:22.121Z,23.50
2019-06-26T01:58:23.833Z,23.75
2019-06-26T01:59:25.500Z,22.60
2019-06-26T02:00:27.120Z,23.22
2019-06-26T02:01:28.865Z,24.05
2019-06-26T02:02:30.535Z,22.87
2019-06-26T02:03:32.238Z,22.80
2019-06-26T02:04:33.949Z,23.20
2019-06-26T02:05:35.659Z,23.05
2019-06-26T02:06:37.406Z,23.75
2019-06-26T02:07:39.095Z,23.90
2019-06-26T02:08:40.681Z,23.60
2019-06-26T02:09:42.275Z,23.98
2019-06-26T02:10:43.975Z,24.50
2019-06-26T02:11:46.179Z,23.25
2019-06-26T02:12:47.995Z,23.57
2019-06-26T02:13:49.686Z,22.70
2019-06-26T02:14:54.385Z,24.35
2019-06-26T02:15:56.079Z,25.32
2019-06-26T02:16:57.797Z,23.47
2019-06-26T02:17:59.380Z,24.27
2019-06-26T02:19:02.879Z,24.72
2019-06-26T02:20:07.891Z,23.77
2019-06-26T02:21:09.473Z,24.18
2019-06-26T02:22:11.253Z,23.80
2019-06-26T02:23:12.783Z,23.95
2019-06-26T02:24:14.529Z,24.35
2019-06-26T02:25:16.290Z,24.30
2019-06-26T02:26:17.831Z,24.23
2019-06-26T02:27:19.767Z,23.47
2019-06-26T02:28:21.362Z,24.60
2019-06-26T02:29:22.957Z,24.05
2019-06-26T02:30:24.650Z,24.32
2019-06-26T02:31:26.368Z,23.67
2019-06-26T02:32:28.007Z,23.70
2019-06-26T02:33:29.706Z,24.23
2019-06-26T02:34:31.382Z,24.63
2019-06-26T02:35:32.969Z,25.00
2019-06-26T02:36:34.579Z,25.37
2019-06-26T02:37:36.289Z,24.43
2019-06-26T02:38:37.965Z,25.27
2019-06-26T02:39:39.664Z,25.20
2019-06-26T02:40:41.483Z,24.70
2019-06-26T02:41:43.073Z,24.85
2019-06-26T02:42:44.676Z,25.25
2019-06-26T02:43:46.364Z,25.20
2019-06-26T02:44:53.634Z,25.90
2019-06-26T02:45:51.433Z,25.27
2019-06-26T02:46:53.226Z,25.17
2019-06-26T02:47:54.954Z,25.37
2019-06-26T02:48:58.168Z,24.92
2019-06-26T02:49:59.838Z,25.48
2019-06-26T02:51:01.812Z,24.35
2019-06-26T02:52:03.398Z,25.00
2019-06-26T02:53:05.114Z,25.90
2019-06-26T02:54:06.694Z,24.30
2019-06-26T02:55:08.679Z,25.23
2019-06-26T02:56:10.564Z,25.65
2019-06-26T02:57:12.247Z,25.15
2019-06-26T02:58:15.770Z,24.77
2019-06-26T02:59:17.449Z,24.72
2019-06-26T03:00:19.145Z,25.30
2019-06-26T03:01:20.826Z,25.05
2019-06-26T03:02:22.524Z,25.12
2019-06-26T03:03:27.186Z,25.12
2019-06-26T03:04:28.890Z,25.02
2019-06-26T03:05:30.490Z,25.30
2019-06-26T03:06:32.090Z,25.55
2019-06-26T03:07:33.769Z,25.82
2019-06-26T03:08:35.546Z,26.77
2019-06-26T03:09:37.250Z,24.80
2019-06-26T03:10:38.944Z,25.40
2019-06-26T03:11:44.419Z,25.60
2019-06-26T03:12:49.788Z,25.00
2019-06-26T03:13:51.578Z,24.92
2019-06-26T03:15:07.681Z,25.25
2019-06-26T03:15:56.729Z,24.37
2019-06-26T03:17:07.719Z,24.55
2019-06-26T03:18:09.431Z,25.57
2019-06-26T03:19:11.167Z,25.62
2019-06-26T03:20:13.282Z,24.63
2019-06-26T03:21:14.976Z,23.65
2019-06-26T03:22:16.675Z,24.35
2019-06-26T03:23:18.394Z,24.52
2019-06-26T03:24:20.099Z,24.67
2019-06-26T03:25:22.097Z,24.90
2019-06-26T03:26:23.785Z,25.12
2019-06-26T03:27:25.876Z,25.55
2019-06-26T03:28:27.465Z,25.77
2019-06-26T03:29:29.209Z,23.95
2019-06-26T03:30:33.815Z,24.23
2019-06-26T03:31:35.543Z,24.65
2019-06-26T03:32:37.223Z,23.87
2019-06-26T03:33:38.918Z,23.42
2019-06-26T03:34:40.533Z,23.35
2019-06-26T03:35:42.132Z,24.47
2019-06-26T03:36:43.817Z,24.40
2019-06-26T03:37:45.803Z,24.50
2019-06-26T03:38:47.493Z,25.08
2019-06-26T03:39:49.300Z,24.87
2019-06-26T03:40:51.052Z,24.15
2019-06-26T03:41:53.154Z,24.72
2019-06-26T03:42:54.872Z,23.77
2019-06-26T03:43:56.883Z,23.15
2019-06-26T03:44:58.492Z,23.22
2019-06-26T03:46:00.208Z,23.62
2019-06-26T03:47:01.784Z,23.67
2019-06-26T03:48:03.595Z,24.23
2019-06-26T03:49:05.288Z,22.58
2019-06-26T03:50:07.867Z,22.65
2019-06-26T03:51:09.473Z,24.47
2019-06-26T03:52:11.162Z,23.15
2019-06-26T03:53:12.741Z,22.98
2019-06-26T03:54:14.429Z,22.80
2019-06-26T03:55:16.457Z,23.05
2019-06-26T03:56:18.045Z,23.07
2019-06-26T03:57:19.736Z,23.25
2019-06-26T03:58:21.523Z,24.23
2019-06-26T03:59:23.229Z,24.35
2019-06-26T04:00:34.660Z,24.47
2019-06-26T04:01:36.351Z,24.57
2019-06-26T04:02:37.995Z,24.32
2019-06-26T04:03:39.581Z,24.82
2019-06-26T04:04:41.185Z,24.18
2019-06-26T04:05:42.797Z,25.20
2019-06-26T04:06:44.515Z,24.52
2019-06-26T04:07:46.191Z,24.10
2019-06-26T04:08:47.776Z,24.82
2019-06-26T04:09:49.476Z,24.70
2019-06-26T04:10:51.121Z,24.32
2019-06-26T04:11:52.809Z,22.98
2019-06-26T04:12:54.616Z,23.02
2019-06-26T04:13:56.142Z,23.62
2019-06-26T04:14:57.872Z,22.22
2019-06-26T04:15:59.558Z,21.82
2019-06-26T04:17:01.255Z,21.45
2019-06-26T04:18:02.949Z,21.75
2019-06-26T04:19:04.739Z,22.17
2019-06-26T04:20:06.731Z,22.15
2019-06-26T04:21:08.456Z,22.52
2019-06-26T04:22:10.231Z,21.17
2019-06-26T04:23:11.839Z,21.90
2019-06-26T04:24:13.428Z,21.85
2019-06-26T04:25:15.118Z,22.02
2019-06-26T04:26:16.838Z,22.05
2019-06-26T04:27:18.547Z,22.32
2019-06-26T04:28:20.326Z,23.07
2019-06-26T04:29:21.930Z,21.57
2019-06-26T04:30:23.699Z,23.10
2019-06-26T04:31:25.437Z,23.07
2019-06-26T04:32:27.021Z,22.13
2019-06-26T04:33:29.066Z,22.42
2019-06-26T04:34:30.649Z,23.05
2019-06-26T04:35:32.359Z,22.77
2019-06-26T04:36:34.102Z,23.30
2019-06-26T04:37:37.142Z,22.95
2019-06-26T04:38:58.490Z,23.07
2019-06-26T04:40:00.431Z,24.18
2019-06-26T04:41:02.022Z,23.73
2019-06-26T04:42:03.745Z,23.15
2019-06-26T04:43:05.323Z,23.60
2019-06-26T04:44:06.954Z,23.83
2019-06-26T04:45:10.780Z,22.30
2019-06-26T04:46:12.459Z,23.42
2019-06-26T04:47:14.179Z,21.85
2019-06-26T04:48:15.854Z,23.38
2019-06-26T04:49:17.572Z,23.70
2019-06-26T04:50:20.772Z,23.73
2019-06-26T04:51:22.473Z,23.42
2019-06-26T04:52:24.073Z,24.57
2019-06-26T04:53:25.786Z,23.98
2019-06-26T04:54:27.433Z,24.50
2019-06-26T04:55:29.026Z,24.25
2019-06-26T04:56:30.727Z,24.20
2019-06-26T04:57:32.318Z,23.62
2019-06-26T04:58:33.894Z,22.75
2019-06-26T04:59:36.219Z,22.58
2019-06-26T05:00:37.820Z,22.75
2019-06-26T05:01:39.615Z,22.45
2019-06-26T05:02:41.294Z,22.22
2019-06-26T05:03:42.991Z,22.17
2019-06-26T05:04:44.750Z,21.55
2019-06-26T05:05:46.437Z,22.15
2019-06-26T05:06:48.048Z,21.05
2019-06-26T05:07:49.644Z,22.45
2019-06-26T05:08:51.304Z,20.75
2019-06-26T05:09:53.373Z,21.40
2019-06-26T05:10:55.101Z,21.45
2019-06-26T05:11:56.651Z,20.70
2019-06-26T05:12:58.368Z,21.12
2019-06-26T05:14:00.042Z,20.88
2019-06-26T05:15:05.486Z,20.35
2019-06-26T05:16:14.867Z,19.65
2019-06-26T05:17:10.712Z,19.52
2019-06-26T05:18:12.396Z,18.80
2019-06-26T05:19:14.103Z,19.27
2019-06-26T05:20:15.827Z,18.50
2019-06-26T05:21:17.506Z,19.48
2019-06-26T05:22:19.670Z,19.50
2019-06-26T05:23:21.376Z,18.98
2019-06-26T05:24:22.953Z,19.20
2019-06-26T05:25:26.143Z,19.25
2019-06-26T05:26:27.850Z,18.48
2019-06-26T05:27:29.854Z,20.17
2019-06-26T05:28:31.446Z,19.12
2019-06-26T05:29:33.137Z,19.75
2019-06-26T05:30:35.192Z,18.65
2019-06-26T05:31:36.924Z,18.02
2019-06-26T05:32:38.506Z,19.90
2019-06-26T05:33:40.101Z,23.98
2019-06-26T05:34:42.091Z,20.12
2019-06-26T05:35:43.733Z,18.73
2019-06-26T05:36:45.297Z,18.35
2019-06-26T05:37:46.901Z,19.80
2019-06-26T05:38:48.620Z,21.40
2019-06-26T05:39:50.434Z,19.67
2019-06-26T05:40:53.565Z,17.75
2019-06-26T05:41:55.140Z,17.82
2019-06-26T05:42:56.837Z,17.98
2019-06-26T05:43:58.536Z,18.25
2019-06-26T05:45:00.148Z,17.73
2019-06-26T05:46:02.083Z,18.57
2019-06-26T05:47:06.989Z,17.73
2019-06-26T05:48:07.290Z,17.95
2019-06-26T05:49:08.893Z,16.70
2019-06-26T05:50:11.588Z,17.40
2019-06-26T05:51:13.202Z,17.85
2019-06-26T05:52:16.732Z,17.12
2019-06-26T05:53:18.266Z,16.80
2019-06-26T05:54:19.954Z,16.20
2019-06-26T05:55:21.537Z,17.32
2019-06-26T05:56:23.309Z,16.67
2019-06-26T05:57:24.897Z,17.12
2019-06-26T05:58:26.572Z,17.50
2019-06-26T05:59:28.139Z,17.20
2019-06-26T06:00:29.759Z,17.02
2019-06-26T06:01:31.475Z,17.57
2019-06-26T06:02:33.166Z,17.48
2019-06-26T06:03:34.866Z,18.05
2019-06-26T06:04:36.666Z,16.65
2019-06-26T06:05:38.328Z,17.05
2019-06-26T06:06:41.934Z,16.60
2019-06-26T06:07:43.365Z,17.15
2019-06-26T06:08:44.937Z,17.12
2019-06-26T06:09:46.537Z,16.45
2019-06-26T06:10:48.154Z,17.50
2019-06-26T06:11:49.838Z,17.00
2019-06-26T06:12:51.562Z,18.30
2019-06-26T06:13:53.621Z,16.85
2019-06-26T06:14:55.321Z,17.95
2019-06-26T06:15:57.018Z,17.40
2019-06-26T06:16:58.748Z,17.85
2019-06-26T06:18:00.383Z,17.48
2019-06-26T06:19:02.593Z,18.48
2019-06-26T06:20:05.622Z,17.67
2019-06-26T06:21:07.653Z,18.10
2019-06-26T06:22:09.333Z,17.45
2019-06-26T06:23:11.300Z,16.75
2019-06-26T06:24:12.917Z,16.85
2019-06-26T06:25:14.595Z,15.98
2019-06-26T06:26:16.278Z,16.48
2019-06-26T06:27:18.029Z,16.30
2019-06-26T06:28:19.817Z,16.45
2019-06-26T06:29:21.543Z,15.63
2019-06-26T06:30:24.046Z,14.30
2019-06-26T06:31:25.837Z,14.20
2019-06-26T06:32:27.436Z,14.28
2019-06-26T06:33:29.161Z,13.30
2019-06-26T06:34:30.962Z,13.32
2019-06-26T06:35:32.491Z,13.95
2019-06-26T06:36:34.074Z,13.13
2019-06-26T06:37:35.806Z,13.48
2019-06-26T06:38:37.525Z,14.33
2019-06-26T06:39:42.641Z,13.18
2019-06-26T06:40:44.328Z,13.90
2019-06-26T06:41:46.029Z,13.25
2019-06-26T06:42:47.718Z,13.38
2019-06-26T06:43:56.118Z,13.35
2019-06-26T06:45:05.257Z,12.80
2019-06-26T06:46:09.345Z,13.98
2019-06-26T06:47:14.075Z,12.23
2019-06-26T06:48:16.359Z,13.05
2019-06-26T06:49:18.273Z,12.55
2019-06-26T06:50:20.251Z,12.60
2019-06-26T06:51:22.283Z,13.03
2019-06-26T06:52:26.869Z,12.37
2019-06-26T06:53:28.760Z,12.20
2019-06-26T06:54:30.326Z,12.63
2019-06-26T06:55:31.962Z,13.35
2019-06-26T06:56:33.645Z,11.85
2019-06-26T06:57:35.353Z,11.73
2019-06-26T06:58:37.041Z,12.37
2019-06-26T06:59:38.742Z,12.30
2019-06-26T07:00:40.481Z,12.75
2019-06-26T07:01:42.524Z,12.35
2019-06-26T07:02:44.204Z,13.40
2019-06-26T07:03:45.887Z,13.20
2019-06-26T07:04:47.577Z,12.40
2019-06-26T07:05:49.256Z,12.05
2019-06-26T07:06:50.958Z,12.95
2019-06-26T07:07:52.537Z,12.43
2019-06-26T07:08:54.148Z,11.18
2019-06-26T07:09:55.839Z,11.05
2019-06-26T07:10:57.578Z,11.78
2019-06-26T07:11:59.289Z,10.72
2019-06-26T07:13:00.885Z,14.80
2019-06-26T07:14:03.165Z,11.55
2019-06-26T07:15:07.671Z,11.40
2019-06-26T07:16:09.401Z,11.63
2019-06-26T07:17:20.669Z,11.65
2019-06-26T07:18:15.005Z,10.85
2019-06-26T07:19:22.586Z,11.38
2019-06-26T07:20:24.649Z,11.55
2019-06-26T07:21:26.357Z,12.07
2019-06-26T07:22:27.946Z,11.88
2019-06-26T07:23:29.650Z,10.55
2019-06-26T07:24:31.358Z,11.90
2019-06-26T07:25:33.038Z,11.63
2019-06-26T07:26:34.759Z,12.03
2019-06-26T07:27:36.739Z,10.10
2019-06-26T07:28:38.417Z,11.30
2019-06-26T07:29:40.226Z,10.80
2019-06-26T07:30:41.925Z,11.12
2019-06-26T07:31:43.618Z,12.50
2019-06-26T07:32:45.367Z,10.90
2019-06-26T07:33:46.951Z,10.30
2019-06-26T07:34:48.657Z,10.38
2019-06-26T07:35:50.366Z,10.98
2019-06-26T07:36:52.105Z,11.40
2019-06-26T07:37:53.801Z,10.38
2019-06-26T07:38:55.429Z,10.78
2019-06-26T07:40:01.461Z,10.48
2019-06-26T07:41:00.573Z,9.45
2019-06-26T07:42:02.312Z,10.03
2019-06-26T07:43:03.889Z,9.95
2019-06-26T07:44:05.587Z,9.88
2019-06-26T07:45:08.112Z,9.95
2019-06-26T07:46:10.144Z,9.95
2019-06-26T07:47:22.450Z,9.85
2019-06-26T07:48:16.697Z,10.40
2019-06-26T07:49:18.393Z,10.13
2019-06-26T07:50:20.119Z,9.95
2019-06-26T07:51:21.924Z,9.58
2019-06-26T07:52:23.597Z,9.63
2019-06-26T07:53:25.232Z,9.58
2019-06-26T07:54:26.898Z,10.15
2019-06-26T07:55:28.597Z,9.83
2019-06-26T07:56:30.181Z,9.88
2019-06-26T07:57:32.164Z,9.55
2019-06-26T07:58:33.849Z,9.43
2019-06-26T07:59:35.498Z,9.33
2019-06-26T08:00:37.127Z,8.93
2019-06-26T08:01:38.822Z,9.68
2019-06-26T08:02:40.544Z,8.80
2019-06-26T08:03:42.106Z,9.28
2019-06-26T08:04:43.977Z,8.70
2019-06-26T08:05:45.727Z,9.35
2019-06-26T08:06:47.271Z,8.98
2019-06-26T08:07:48.871Z,8.73
2019-06-26T08:08:51.428Z,8.78
2019-06-26T08:09:53.335Z,8.50
2019-06-26T08:10:55.023Z,8.40
2019-06-26T08:11:56.615Z,8.18
2019-06-26T08:12:58.228Z,8.58
2019-06-26T08:14:00.029Z,9.03
2019-06-26T08:15:02.765Z,9.48
2019-06-26T08:16:04.883Z,8.90
2019-06-26T08:17:06.572Z,9.23
2019-06-26T08:18:08.251Z,9.78
2019-06-26T08:19:09.938Z,8.60
2019-06-26T08:20:11.791Z,9.38
2019-06-26T08:21:13.471Z,8.55
2019-06-26T08:22:15.197Z,9.33
2019-06-26T08:23:17.887Z,10.82
2019-06-26T08:24:19.497Z,10.25
2019-06-26T08:25:21.144Z,11.70
2019-06-26T08:26:22.731Z,9.18
2019-06-26T08:27:24.457Z,9.03
2019-06-26T08:28:26.057Z,9.45
2019-06-26T08:29:28.067Z,9.55
2019-06-26T08:30:30.014Z,9.75
2019-06-26T08:31:31.729Z,9.98
2019-06-26T08:32:33.411Z,9.78
2019-06-26T08:33:35.102Z,10.72
2019-06-26T08:34:36.814Z,10.48
2019-06-26T08:35:38.528Z,9.75
2019-06-26T08:36:40.211Z,9.63
2019-06-26T08:37:41.785Z,9.38
2019-06-26T08:38:43.479Z,10.18
2019-06-26T08:39:45.100Z,9.60
2019-06-26T08:40:46.715Z,9.70
2019-06-26T08:41:48.425Z,15.45
2019-06-26T08:42:49.985Z,10.88
2019-06-26T08:43:51.773Z,15.00
2019-06-26T08:44:53.360Z,19.82
2019-06-26T08:45:55.414Z,13.80
2019-06-26T08:46:57.123Z,10.50
2019-06-26T08:47:58.708Z,9.93
2019-06-26T08:49:00.431Z,9.38
2019-06-26T08:50:04.610Z,9.33
2019-06-26T08:51:06.374Z,10.10
2019-06-26T08:52:08.048Z,9.40
2019-06-26T08:53:09.806Z,9.58
2019-06-26T08:54:11.565Z,9.48
2019-06-26T08:55:13.910Z,9.85
2019-06-26T08:56:16.029Z,10.58
2019-06-26T08:57:17.609Z,9.53
2019-06-26T08:58:19.205Z,9.60
2019-06-26T08:59:20.906Z,9.38
2019-06-26T09:00:22.699Z,9.58
2019-06-26T09:01:24.418Z,9.53
2019-06-26T09:02:26.118Z,9.55
2019-06-26T09:03:27.803Z,8.23
2019-06-26T09:04:29.489Z,9.00
2019-06-26T09:05:46.942Z,8.83
2019-06-26T09:06:34.527Z,8.93
2019-06-26T09:07:36.320Z,9.20
2019-06-26T09:08:38.126Z,9.18
2019-06-26T09:09:39.843Z,9.43
2019-06-26T09:10:44.735Z,9.08
2019-06-26T09:11:44.902Z,9.18
2019-06-26T09:12:46.636Z,9.20
2019-06-26T09:13:48.317Z,8.88
2019-06-26T09:14:49.932Z,9.08
2019-06-26T09:15:51.615Z,8.63
2019-06-26T09:16:53.462Z,8.95
2019-06-26T09:17:55.063Z,8.53
2019-06-26T09:18:56.729Z,9.13
2019-06-26T09:19:58.421Z,9.10
2019-06-26T09:21:00.023Z,8.40
2019-06-26T09:22:01.761Z,9.40
2019-06-26T09:23:03.993Z,8.88
2019-06-26T09:24:05.602Z,9.30
2019-06-26T09:25:20.992Z,9.13
2019-06-26T09:26:10.930Z,9.08
2019-06-26T09:27:15.066Z,9.63
2019-06-26T09:28:16.204Z,9.88
2019-06-26T09:29:17.896Z,10.28
2019-06-26T09:30:19.704Z,9.78
2019-06-26T09:31:21.445Z,8.90
2019-06-26T09:32:23.088Z,9.38
2019-06-26T09:33:24.674Z,9.45
2019-06-26T09:34:26.267Z,9.70
2019-06-26T09:35:27.954Z,9.80
2019-06-26T09:36:29.568Z,9.73
2019-06-26T09:37:31.207Z,9.93
2019-06-26T09:38:32.894Z,9.90
2019-06-26T09:39:34.578Z,9.70
2019-06-26T09:40:36.267Z,10.28
2019-06-26T09:41:37.970Z,9.55
2019-06-26T09:42:39.946Z,8.95
2019-06-26T09:43:41.645Z,9.73
2019-06-26T09:44:43.326Z,10.18
2019-06-26T09:45:45.026Z,10.75
2019-06-26T09:46:47.150Z,9.80
2019-06-26T09:47:48.784Z,9.68
2019-06-26T09:48:53.111Z,9.63
2019-06-26T09:49:53.899Z,9.73
2019-06-26T09:50:55.881Z,10.05
2019-06-26T09:51:57.576Z,9.70
2019-06-26T09:52:59.514Z,9.40
2019-06-26T09:54:01.555Z,9.73
2019-06-26T09:55:04.564Z,9.60
2019-06-26T09:56:06.170Z,10.88
2019-06-26T09:57:07.769Z,8.88
2019-06-26T09:58:12.977Z,9.35
2019-06-26T09:59:12.883Z,9.03
2019-06-26T10:00:18.190Z,11.88
2019-06-26T10:01:19.946Z,12.78
2019-06-26T10:02:21.611Z,9.28
2019-06-26T10:03:23.631Z,9.75
2019-06-26T10:04:25.375Z,8.58
2019-06-26T10:05:26.947Z,9.73
2019-06-26T10:06:28.640Z,8.40
2019-06-26T10:07:30.336Z,8.90
2019-06-26T10:08:32.058Z,11.48
2019-06-26T10:09:33.755Z,10.03
2019-06-26T10:10:35.458Z,10.35
2019-06-26T10:11:37.137Z,9.10
2019-06-26T10:12:39.131Z,8.85
2019-06-26T10:13:40.867Z,10.10
2019-06-26T10:14:47.650Z,9.88
2019-06-26T10:15:46.042Z,8.90
2019-06-26T10:16:47.759Z,9.43
2019-06-26T10:17:49.450Z,9.23
2019-06-26T10:18:51.129Z,8.73
2019-06-26T10:19:54.157Z,9.33
2019-06-26T10:20:55.997Z,9.23
2019-06-26T10:21:57.582Z,9.20
2019-06-26T10:22:59.267Z,9.85
2019-06-26T10:24:06.960Z,9.28
2019-06-26T10:25:11.267Z,9.35
2019-06-26T10:26:12.280Z,9.33
2019-06-26T10:27:13.861Z,9.60
2019-06-26T10:28:15.561Z,9.15
2019-06-26T10:29:17.231Z,10.18
2019-06-26T10:30:19.300Z,9.15
2019-06-26T10:31:21.036Z,9.40
2019-06-26T10:32:22.708Z,10.10
2019-06-26T10:33:24.647Z,11.33
2019-06-26T10:34:26.380Z,12.75
2019-06-26T10:35:28.074Z,9.25
2019-06-26T10:36:29.759Z,9.18
2019-06-26T10:37:31.342Z,9.60
2019-06-26T10:38:33.389Z,9.30
2019-06-26T10:39:35.134Z,8.75
2019-06-26T10:40:36.866Z,9.00
2019-06-26T10:41:38.437Z,9.28
2019-06-26T10:42:40.125Z,8.98
2019-06-26T10:43:41.723Z,8.48
2019-06-26T10:44:43.477Z,9.35
2019-06-26T10:45:45.157Z,8.78
2019-06-26T10:46:46.856Z,8.93
2019-06-26T10:47:48.553Z,8.70
2019-06-26T10:48:50.236Z,8.58
2019-06-26T10:49:51.845Z,8.75
2019-06-26T10:50:58.402Z,9.03
2019-06-26T10:51:56.863Z,8.73
2019-06-26T10:52:58.563Z,9.05
2019-06-26T10:54:00.324Z,8.30
2019-06-26T10:55:04.220Z,8.83
2019-06-26T10:56:05.934Z,9.10
2019-06-26T10:57:10.413Z,8.35
2019-06-26T10:58:11.987Z,9.00
2019-06-26T10:59:13.671Z,8.43
2019-06-26T11:00:15.940Z,9.45
2019-06-26T11:01:17.603Z,8.98
2019-06-26T11:02:19.245Z,8.13
2019-06-26T11:03:21.291Z,10.13
2019-06-26T11:04:23.049Z,8.80
2019-06-26T11:05:24.760Z,8.95
2019-06-26T11:06:26.830Z,8.53
2019-06-26T11:07:29.870Z,8.25
2019-06-26T11:08:31.461Z,8.53
2019-06-26T11:09:33.148Z,8.28
2019-06-26T11:10:35.259Z,8.78
2019-06-26T11:11:37.833Z,9.78
2019-06-26T11:12:39.457Z,8.80
2019-06-26T11:13:41.161Z,8.70
2019-06-26T11:14:44.463Z,8.83
2019-06-26T11:15:46.158Z,9.13
2019-06-26T11:16:47.879Z,9.10
2019-06-26T11:17:49.614Z,8.63
2019-06-26T11:18:51.306Z,8.48
2019-06-26T11:19:55.432Z,11.88
2019-06-26T11:20:56.503Z,8.43
2019-06-26T11:21:58.110Z,8.53
2019-06-26T11:22:59.844Z,8.58
2019-06-26T11:24:01.875Z,8.98
2019-06-26T11:25:05.570Z,9.80
2019-06-26T11:26:07.254Z,9.30
2019-06-26T11:27:08.941Z,9.78
2019-06-26T11:28:10.561Z,9.15
2019-06-26T11:29:12.236Z,9.45
2019-06-26T11:30:14.334Z,9.13
2019-06-26T11:31:16.064Z,9.20
2019-06-26T11:32:17.755Z,9.18
2019-06-26T11:33:19.550Z,9.25
2019-06-26T11:34:21.108Z,8.78
2019-06-26T11:35:22.816Z,8.85
2019-06-26T11:36:24.383Z,9.38
2019-06-26T11:37:26.099Z,9.50
2019-06-26T11:38:28.174Z,9.10
2019-06-26T11:39:30.250Z,8.93
2019-06-26T11:40:31.843Z,9.35
2019-06-26T11:41:33.442Z,8.78
2019-06-26T11:42:35.051Z,9.88
2019-06-26T11:43:36.833Z,9.60
2019-06-26T11:44:38.488Z,9.30
2019-06-26T11:45:40.275Z,9.28
2019-06-26T11:46:42.273Z,9.58
2019-06-26T11:47:45.881Z,9.55
2019-06-26T11:48:47.314Z,9.90
2019-06-26T11:49:59.451Z,10.10
2019-06-26T11:50:52.428Z,10.80
2019-06-26T11:51:54.146Z,9.28
2019-06-26T11:52:55.855Z,9.60
2019-06-26T11:53:59.094Z,8.93
2019-06-26T11:55:02.979Z,9.60
2019-06-26T11:56:04.580Z,9.45
2019-06-26T11:57:06.164Z,9.80
2019-06-26T11:58:07.766Z,9.70
2019-06-26T11:59:09.555Z,9.48
2019-06-26T12:00:14.763Z,9.00
2019-06-26T12:01:16.462Z,9.15
2019-06-26T12:02:21.724Z,8.95
2019-06-26T12:03:23.531Z,10.05
2019-06-26T12:04:25.231Z,9.75
2019-06-26T12:05:26.878Z,9.38
2019-06-26T12:06:28.555Z,9.20
2019-06-26T12:07:30.253Z,8.90
2019-06-26T12:08:31.855Z,8.78
2019-06-26T12:09:33.946Z,9.68
2019-06-26T12:10:35.646Z,9.90
2019-06-26T12:11:37.346Z,9.20
2019-06-26T12:12:39.111Z,9.03
2019-06-26T12:13:40.844Z,9.50
2019-06-26T12:14:42.462Z,9.75
2019-06-26T12:15:44.055Z,8.80
2019-06-26T12:16:45.743Z,9.40
2019-06-26T12:17:47.441Z,74.25
2019-06-26T12:18:49.910Z,8.98
2019-06-26T12:19:52.183Z,7.75
2019-06-26T12:20:53.873Z,8.80
2019-06-26T12:21:55.570Z,9.10
2019-06-26T12:22:57.289Z,8.70
2019-06-26T12:23:58.874Z,8.20
2019-06-26T12:25:00.928Z,9.50
2019-06-26T12:26:02.762Z,7.92
2019-06-26T12:27:04.464Z,8.73
2019-06-26T12:28:06.175Z,8.13
2019-06-26T12:29:07.801Z,7.35
2019-06-26T12:30:10.417Z,8.30
2019-06-26T12:31:12.140Z,7.85
2019-06-26T12:32:13.888Z,8.65
2019-06-26T12:33:15.436Z,7.50
2019-06-26T12:34:17.236Z,8.08
2019-06-26T12:35:19.088Z,7.95
2019-06-26T12:36:20.682Z,8.45
2019-06-26T12:37:36.572Z,7.87
2019-06-26T12:38:26.180Z,7.60
2019-06-26T12:39:27.774Z,7.60
2019-06-26T12:40:31.239Z,7.70
2019-06-26T12:41:33.023Z,7.28
2019-06-26T12:42:34.720Z,7.15
2019-06-26T12:43:37.481Z,7.28
2019-06-26T12:44:39.147Z,7.42
2019-06-26T12:45:40.801Z,7.62
2019-06-26T12:46:42.479Z,7.00
2019-06-26T12:47:44.189Z,7.35
2019-06-26T12:48:45.867Z,7.00
2019-06-26T12:49:47.579Z,7.10
2019-06-26T12:50:49.214Z,7.15
2019-06-26T12:51:50.915Z,6.55
2019-06-26T12:52:52.609Z,7.05
2019-06-26T12:53:57.534Z,7.28
2019-06-26T12:54:57.967Z,7.67
2019-06-26T12:55:59.599Z,6.78
2019-06-26T12:57:01.291Z,7.40
2019-06-26T12:58:13.670Z,7.60
2019-06-26T12:59:07.090Z,7.15
2019-06-26T13:00:09.888Z,7.08
2019-06-26T13:01:11.507Z,6.90
2019-06-26T13:02:13.213Z,7.10
2019-06-26T13:03:14.832Z,6.40
2019-06-26T13:04:18.546Z,6.60
2019-06-26T13:05:20.134Z,6.58
2019-06-26T13:06:21.872Z,6.92
2019-06-26T13:07:23.482Z,6.60
2019-06-26T13:08:25.538Z,6.90
2019-06-26T13:09:27.137Z,7.67
2019-06-26T13:10:28.917Z,9.00
2019-06-26T13:11:30.569Z,8.15
2019-06-26T13:12:32.289Z,8.35
2019-06-26T13:13:34.039Z,7.65
2019-06-26T13:14:35.749Z,7.40
2019-06-26T13:15:37.371Z,8.13
2019-06-26T13:16:38.941Z,7.95
2019-06-26T13:17:40.836Z,7.60
2019-06-26T13:18:42.495Z,8.43
2019-06-26T13:19:44.230Z,7.53
2019-06-26T13:20:52.689Z,8.20
2019-06-26T13:21:49.560Z,8.18
2019-06-26T13:22:51.358Z,8.68
2019-06-26T13:23:53.096Z,8.78
2019-06-26T13:24:54.802Z,9.25
2019-06-26T13:25:56.496Z,8.70
2019-06-26T13:26:58.541Z,9.53
2019-06-26T13:28:00.525Z,9.15
2019-06-26T13:29:02.294Z,8.63